sensor_id;sensor_type;location;lat;lon;timestamp;P1;durP1;ratioP1;P2;durP2;ratioP2
24585;SDS011;12743;52.262;6.172;2022-07-24T00:01:17;5.93;;;3.17;;
24585;SDS011;12743;52.262;6.172;2022-07-24T00:03:42;8.03;;;3.40;;
24585;SDS011;12743;52.262;6.172;2022-07-24T00:06:07;5.40;;;3.17;;
24585;SDS011;12743;52.262;6.172;2022-07-24T00:08:33;7.77;;;3.53;;
24585;SDS011;12743;52.262;6.172;2022-07-24T00:10:58;6.63;;;3.77;;
24585;SDS011;12743;52.262;6.172;2022-07-24T00:13:24;7.05;;;4.28;;
24585;SDS011;12743;52.262;6.172;2022-07-24T00:15:49;6.73;;;3.60;;
24585;SDS011;12743;52.262;6.172;2022-07-24T00:18:15;7.97;;;3.73;;
24585;SDS011;12743;52.262;6.172;2022-07-24T00:20:40;6.35;;;3.70;;
24585;SDS011;12743;52.262;6.172;2022-07-24T00:23:06;7.23;;;3.60;;
24585;SDS011;12743;52.262;6.172;2022-07-24T00:25:31;7.67;;;3.60;;
24585;SDS011;12743;52.262;6.172;2022-07-24T00:27:57;6.17;;;3.77;;
24585;SDS011;12743;52.262;6.172;2022-07-24T00:30:22;5.77;;;3.00;;
24585;SDS011;12743;52.262;6.172;2022-07-24T00:32:48;7.17;;;3.60;;
24585;SDS011;12743;52.262;6.172;2022-07-24T00:35:13;7.77;;;3.80;;
24585;SDS011;12743;52.262;6.172;2022-07-24T00:37:39;7.32;;;3.80;;
24585;SDS011;12743;52.262;6.172;2022-07-24T00:40:04;8.17;;;4.50;;
24585;SDS011;12743;52.262;6.172;2022-07-24T00:42:30;6.93;;;4.43;;
24585;SDS011;12743;52.262;6.172;2022-07-24T00:44:55;8.80;;;4.90;;
24585;SDS011;12743;52.262;6.172;2022-07-24T00:47:21;7.47;;;4.47;;
24585;SDS011;12743;52.262;6.172;2022-07-24T00:49:46;8.50;;;4.80;;
24585;SDS011;12743;52.262;6.172;2022-07-24T00:52:12;8.00;;;5.17;;
24585;SDS011;12743;52.262;6.172;2022-07-24T00:54:37;7.60;;;5.50;;
24585;SDS011;12743;52.262;6.172;2022-07-24T00:57:03;7.73;;;5.17;;
24585;SDS011;12743;52.262;6.172;2022-07-24T00:59:29;9.02;;;4.75;;
24585;SDS011;12743;52.262;6.172;2022-07-24T01:01:54;10.00;;;6.57;;
24585;SDS011;12743;52.262;6.172;2022-07-24T01:04:20;11.07;;;5.80;;
24585;SDS011;12743;52.262;6.172;2022-07-24T01:06:46;7.72;;;5.47;;
24585;SDS011;12743;52.262;6.172;2022-07-24T01:09:12;9.80;;;5.90;;
24585;SDS011;12743;52.262;6.172;2022-07-24T01:11:39;8.88;;;5.28;;
24585;SDS011;12743;52.262;6.172;2022-07-24T01:14:05;6.47;;;4.47;;
24585;SDS011;12743;52.262;6.172;2022-07-24T01:16:32;8.23;;;5.40;;
24585;SDS011;12743;52.262;6.172;2022-07-24T01:18:57;7.75;;;5.40;;
24585;SDS011;12743;52.262;6.172;2022-07-24T01:21:23;8.20;;;5.00;;
24585;SDS011;12743;52.262;6.172;2022-07-24T01:23:48;7.70;;;5.13;;
24585;SDS011;12743;52.262;6.172;2022-07-24T01:26:13;8.63;;;5.87;;
24585;SDS011;12743;52.262;6.172;2022-07-24T01:28:39;8.67;;;5.57;;
24585;SDS011;12743;52.262;6.172;2022-07-24T01:31:04;9.40;;;6.15;;
24585;SDS011;12743;52.262;6.172;2022-07-24T01:33:29;10.03;;;6.00;;
24585;SDS011;12743;52.262;6.172;2022-07-24T01:35:55;8.97;;;6.73;;
24585;SDS011;12743;52.262;6.172;2022-07-24T01:38:21;10.57;;;7.17;;
24585;SDS011;12743;52.262;6.172;2022-07-24T01:40:46;12.27;;;6.63;;
24585;SDS011;12743;52.262;6.172;2022-07-24T01:43:11;9.73;;;5.83;;
24585;SDS011;12743;52.262;6.172;2022-07-24T01:45:37;9.40;;;5.30;;
24585;SDS011;12743;52.262;6.172;2022-07-24T01:48:02;7.87;;;5.20;;
24585;SDS011;12743;52.262;6.172;2022-07-24T01:50:28;8.95;;;4.93;;
24585;SDS011;12743;52.262;6.172;2022-07-24T01:52:54;9.67;;;5.13;;
24585;SDS011;12743;52.262;6.172;2022-07-24T01:55:25;7.57;;;5.00;;
24585;SDS011;12743;52.262;6.172;2022-07-24T01:57:50;7.13;;;4.60;;
24585;SDS011;12743;52.262;6.172;2022-07-24T02:00:16;8.87;;;4.57;;
24585;SDS011;12743;52.262;6.172;2022-07-24T02:02:42;7.05;;;4.40;;
24585;SDS011;12743;52.262;6.172;2022-07-24T02:05:12;8.63;;;4.20;;
24585;SDS011;12743;52.262;6.172;2022-07-24T02:07:42;8.05;;;5.13;;
24585;SDS011;12743;52.262;6.172;2022-07-24T02:10:09;10.38;;;5.57;;
24585;SDS011;12743;52.262;6.172;2022-07-24T02:12:36;7.60;;;5.05;;
24585;SDS011;12743;52.262;6.172;2022-07-24T02:15:01;9.73;;;5.40;;
24585;SDS011;12743;52.262;6.172;2022-07-24T02:17:28;8.30;;;4.72;;
24585;SDS011;12743;52.262;6.172;2022-07-24T02:19:53;8.63;;;5.30;;
24585;SDS011;12743;52.262;6.172;2022-07-24T02:22:18;10.03;;;5.50;;
24585;SDS011;12743;52.262;6.172;2022-07-24T02:24:44;10.17;;;5.47;;
24585;SDS011;12743;52.262;6.172;2022-07-24T02:27:09;9.33;;;4.73;;
24585;SDS011;12743;52.262;6.172;2022-07-24T02:29:34;8.33;;;5.43;;
24585;SDS011;12743;52.262;6.172;2022-07-24T02:32:00;9.03;;;5.87;;
24585;SDS011;12743;52.262;6.172;2022-07-24T02:34:25;7.80;;;4.97;;
24585;SDS011;12743;52.262;6.172;2022-07-24T02:36:51;9.93;;;5.90;;
24585;SDS011;12743;52.262;6.172;2022-07-24T02:39:16;11.80;;;6.40;;
24585;SDS011;12743;52.262;6.172;2022-07-24T02:41:42;8.70;;;6.03;;
24585;SDS011;12743;52.262;6.172;2022-07-24T02:44:07;10.17;;;6.23;;
24585;SDS011;12743;52.262;6.172;2022-07-24T02:46:32;10.17;;;5.80;;
24585;SDS011;12743;52.262;6.172;2022-07-24T02:48:58;8.80;;;5.60;;
24585;SDS011;12743;52.262;6.172;2022-07-24T02:51:23;9.30;;;5.33;;
24585;SDS011;12743;52.262;6.172;2022-07-24T02:53:48;10.73;;;5.17;;
24585;SDS011;12743;52.262;6.172;2022-07-24T02:56:13;9.47;;;5.00;;
24585;SDS011;12743;52.262;6.172;2022-07-24T02:58:39;9.50;;;5.73;;
24585;SDS011;12743;52.262;6.172;2022-07-24T03:01:04;8.52;;;5.40;;
24585;SDS011;12743;52.262;6.172;2022-07-24T03:03:30;10.17;;;4.50;;
24585;SDS011;12743;52.262;6.172;2022-07-24T03:05:55;10.07;;;5.60;;
24585;SDS011;12743;52.262;6.172;2022-07-24T03:08:20;11.40;;;5.60;;
24585;SDS011;12743;52.262;6.172;2022-07-24T03:10:46;8.33;;;5.20;;
24585;SDS011;12743;52.262;6.172;2022-07-24T03:13:11;7.63;;;4.20;;
24585;SDS011;12743;52.262;6.172;2022-07-24T03:15:37;9.60;;;5.10;;
24585;SDS011;12743;52.262;6.172;2022-07-24T03:18:02;10.10;;;5.60;;
24585;SDS011;12743;52.262;6.172;2022-07-24T03:20:28;12.13;;;5.68;;
24585;SDS011;12743;52.262;6.172;2022-07-24T03:22:54;9.83;;;5.27;;
24585;SDS011;12743;52.262;6.172;2022-07-24T03:25:20;9.60;;;5.50;;
24585;SDS011;12743;52.262;6.172;2022-07-24T03:27:46;12.23;;;6.60;;
24585;SDS011;12743;52.262;6.172;2022-07-24T03:30:13;9.75;;;5.63;;
24585;SDS011;12743;52.262;6.172;2022-07-24T03:32:39;10.80;;;6.20;;
24585;SDS011;12743;52.262;6.172;2022-07-24T03:35:05;9.73;;;5.77;;
24585;SDS011;12743;52.262;6.172;2022-07-24T03:37:30;10.25;;;6.00;;
24585;SDS011;12743;52.262;6.172;2022-07-24T03:39:56;9.60;;;5.73;;
24585;SDS011;12743;52.262;6.172;2022-07-24T03:42:21;9.07;;;5.50;;
24585;SDS011;12743;52.262;6.172;2022-07-24T03:44:47;10.85;;;6.22;;
24585;SDS011;12743;52.262;6.172;2022-07-24T03:47:12;11.33;;;7.00;;
24585;SDS011;12743;52.262;6.172;2022-07-24T03:49:37;9.13;;;5.27;;
24585;SDS011;12743;52.262;6.172;2022-07-24T03:52:03;10.67;;;5.07;;
24585;SDS011;12743;52.262;6.172;2022-07-24T03:54:29;9.18;;;5.25;;
24585;SDS011;12743;52.262;6.172;2022-07-24T03:56:54;10.43;;;6.90;;
24585;SDS011;12743;52.262;6.172;2022-07-24T03:59:20;9.83;;;6.17;;
24585;SDS011;12743;52.262;6.172;2022-07-24T04:01:45;11.18;;;6.85;;
24585;SDS011;12743;52.262;6.172;2022-07-24T04:04:10;10.23;;;6.50;;
24585;SDS011;12743;52.262;6.172;2022-07-24T04:06:36;11.90;;;6.50;;
24585;SDS011;12743;52.262;6.172;2022-07-24T04:09:02;11.83;;;7.10;;
24585;SDS011;12743;52.262;6.172;2022-07-24T04:11:29;10.90;;;6.13;;
24585;SDS011;12743;52.262;6.172;2022-07-24T04:13:54;11.23;;;6.33;;
24585;SDS011;12743;52.262;6.172;2022-07-24T04:16:19;11.63;;;6.57;;
24585;SDS011;12743;52.262;6.172;2022-07-24T04:18:45;9.95;;;6.28;;
24585;SDS011;12743;52.262;6.172;2022-07-24T04:21:10;10.97;;;6.57;;
24585;SDS011;12743;52.262;6.172;2022-07-24T04:23:36;11.40;;;6.10;;
24585;SDS011;12743;52.262;6.172;2022-07-24T04:26:01;11.77;;;6.82;;
24585;SDS011;12743;52.262;6.172;2022-07-24T04:28:27;11.23;;;6.63;;
24585;SDS011;12743;52.262;6.172;2022-07-24T04:30:52;12.77;;;7.77;;
24585;SDS011;12743;52.262;6.172;2022-07-24T04:33:17;10.23;;;6.97;;
24585;SDS011;12743;52.262;6.172;2022-07-24T04:35:43;12.33;;;7.57;;
24585;SDS011;12743;52.262;6.172;2022-07-24T04:38:08;15.20;;;7.95;;
24585;SDS011;12743;52.262;6.172;2022-07-24T04:40:34;11.97;;;7.23;;
24585;SDS011;12743;52.262;6.172;2022-07-24T04:42:59;13.57;;;7.10;;
24585;SDS011;12743;52.262;6.172;2022-07-24T04:45:25;12.57;;;7.90;;
24585;SDS011;12743;52.262;6.172;2022-07-24T04:47:50;13.10;;;7.80;;
24585;SDS011;12743;52.262;6.172;2022-07-24T04:50:15;12.43;;;8.10;;
24585;SDS011;12743;52.262;6.172;2022-07-24T04:52:41;11.90;;;7.87;;
24585;SDS011;12743;52.262;6.172;2022-07-24T04:55:07;13.33;;;8.20;;
24585;SDS011;12743;52.262;6.172;2022-07-24T04:57:33;13.10;;;8.10;;
24585;SDS011;12743;52.262;6.172;2022-07-24T04:59:58;13.63;;;8.38;;
24585;SDS011;12743;52.262;6.172;2022-07-24T05:02:23;14.77;;;8.23;;
24585;SDS011;12743;52.262;6.172;2022-07-24T05:04:49;12.77;;;8.50;;
24585;SDS011;12743;52.262;6.172;2022-07-24T05:07:14;13.80;;;9.10;;
24585;SDS011;12743;52.262;6.172;2022-07-24T05:09:40;12.43;;;8.73;;
24585;SDS011;12743;52.262;6.172;2022-07-24T05:12:05;14.90;;;9.23;;
24585;SDS011;12743;52.262;6.172;2022-07-24T05:14:30;15.65;;;9.55;;
24585;SDS011;12743;52.262;6.172;2022-07-24T05:16:56;16.97;;;9.40;;
24585;SDS011;12743;52.262;6.172;2022-07-24T05:19:21;14.60;;;9.07;;
24585;SDS011;12743;52.262;6.172;2022-07-24T05:21:47;16.27;;;10.60;;
24585;SDS011;12743;52.262;6.172;2022-07-24T05:24:12;15.80;;;9.77;;
24585;SDS011;12743;52.262;6.172;2022-07-24T05:26:37;14.07;;;8.73;;
24585;SDS011;12743;52.262;6.172;2022-07-24T05:29:03;15.68;;;10.13;;
24585;SDS011;12743;52.262;6.172;2022-07-24T05:31:31;14.97;;;9.47;;
24585;SDS011;12743;52.262;6.172;2022-07-24T05:33:56;17.30;;;10.10;;
24585;SDS011;12743;52.262;6.172;2022-07-24T05:36:23;17.63;;;10.13;;
24585;SDS011;12743;52.262;6.172;2022-07-24T05:38:49;15.60;;;10.40;;
24585;SDS011;12743;52.262;6.172;2022-07-24T05:41:15;14.25;;;10.35;;
24585;SDS011;12743;52.262;6.172;2022-07-24T05:43:40;15.07;;;10.40;;
24585;SDS011;12743;52.262;6.172;2022-07-24T05:46:06;16.97;;;11.00;;
24585;SDS011;12743;52.262;6.172;2022-07-24T05:48:32;15.23;;;9.35;;
24585;SDS011;12743;52.262;6.172;2022-07-24T05:50:57;13.83;;;8.73;;
24585;SDS011;12743;52.262;6.172;2022-07-24T05:53:23;16.73;;;10.15;;
24585;SDS011;12743;52.262;6.172;2022-07-24T05:55:48;15.33;;;10.47;;
24585;SDS011;12743;52.262;6.172;2022-07-24T05:58:14;15.18;;;11.48;;
24585;SDS011;12743;52.262;6.172;2022-07-24T06:00:40;16.20;;;10.90;;
24585;SDS011;12743;52.262;6.172;2022-07-24T06:03:05;16.63;;;11.30;;
24585;SDS011;12743;52.262;6.172;2022-07-24T06:05:31;15.83;;;11.07;;
24585;SDS011;12743;52.262;6.172;2022-07-24T06:07:56;17.88;;;11.80;;
24585;SDS011;12743;52.262;6.172;2022-07-24T06:10:22;15.43;;;10.87;;
24585;SDS011;12743;52.262;6.172;2022-07-24T06:12:47;17.47;;;11.20;;
24585;SDS011;12743;52.262;6.172;2022-07-24T06:15:12;19.03;;;11.83;;
24585;SDS011;12743;52.262;6.172;2022-07-24T06:17:38;16.63;;;11.80;;
24585;SDS011;12743;52.262;6.172;2022-07-24T06:20:04;19.20;;;12.45;;
24585;SDS011;12743;52.262;6.172;2022-07-24T06:22:30;19.20;;;11.85;;
24585;SDS011;12743;52.262;6.172;2022-07-24T06:24:56;18.57;;;11.70;;
24585;SDS011;12743;52.262;6.172;2022-07-24T06:27:22;17.70;;;12.45;;
24585;SDS011;12743;52.262;6.172;2022-07-24T06:29:47;17.87;;;12.23;;
24585;SDS011;12743;52.262;6.172;2022-07-24T06:32:12;18.57;;;12.17;;
24585;SDS011;12743;52.262;6.172;2022-07-24T06:34:37;19.57;;;12.20;;
24585;SDS011;12743;52.262;6.172;2022-07-24T06:37:03;19.57;;;12.47;;
24585;SDS011;12743;52.262;6.172;2022-07-24T06:39:28;14.70;;;8.90;;
24585;SDS011;12743;52.262;6.172;2022-07-24T06:41:54;16.73;;;9.95;;
24585;SDS011;12743;52.262;6.172;2022-07-24T06:44:23;16.60;;;10.80;;
24585;SDS011;12743;52.262;6.172;2022-07-24T06:46:49;14.57;;;9.98;;
24585;SDS011;12743;52.262;6.172;2022-07-24T06:49:15;13.90;;;9.00;;
24585;SDS011;12743;52.262;6.172;2022-07-24T06:51:40;15.07;;;9.63;;
24585;SDS011;12743;52.262;6.172;2022-07-24T06:54:05;12.07;;;9.03;;
24585;SDS011;12743;52.262;6.172;2022-07-24T06:56:31;14.65;;;8.27;;
24585;SDS011;12743;52.262;6.172;2022-07-24T06:58:57;13.33;;;7.73;;
24585;SDS011;12743;52.262;6.172;2022-07-24T07:01:24;14.07;;;7.93;;
24585;SDS011;12743;52.262;6.172;2022-07-24T07:03:51;12.63;;;6.88;;
24585;SDS011;12743;52.262;6.172;2022-07-24T07:06:17;11.80;;;7.97;;
24585;SDS011;12743;52.262;6.172;2022-07-24T07:08:43;13.70;;;7.47;;
24585;SDS011;12743;52.262;6.172;2022-07-24T07:11:08;11.23;;;6.90;;
24585;SDS011;12743;52.262;6.172;2022-07-24T07:13:33;11.67;;;7.33;;
24585;SDS011;12743;52.262;6.172;2022-07-24T07:15:59;11.63;;;7.30;;
24585;SDS011;12743;52.262;6.172;2022-07-24T07:18:25;10.43;;;6.73;;
24585;SDS011;12743;52.262;6.172;2022-07-24T07:20:50;11.48;;;5.65;;
24585;SDS011;12743;52.262;6.172;2022-07-24T07:23:19;11.30;;;6.10;;
24585;SDS011;12743;52.262;6.172;2022-07-24T07:25:46;10.35;;;6.72;;
24585;SDS011;12743;52.262;6.172;2022-07-24T07:28:11;13.57;;;7.03;;
24585;SDS011;12743;52.262;6.172;2022-07-24T07:30:37;10.63;;;6.17;;
24585;SDS011;12743;52.262;6.172;2022-07-24T07:33:02;12.32;;;6.22;;
24585;SDS011;12743;52.262;6.172;2022-07-24T07:35:28;11.60;;;6.00;;
24585;SDS011;12743;52.262;6.172;2022-07-24T07:37:53;12.30;;;7.03;;
24585;SDS011;12743;52.262;6.172;2022-07-24T07:40:19;12.30;;;6.40;;
24585;SDS011;12743;52.262;6.172;2022-07-24T07:42:44;9.48;;;5.70;;
24585;SDS011;12743;52.262;6.172;2022-07-24T07:45:09;9.83;;;6.10;;
24585;SDS011;12743;52.262;6.172;2022-07-24T07:47:35;8.83;;;5.17;;
24585;SDS011;12743;52.262;6.172;2022-07-24T07:50:02;9.32;;;4.72;;
24585;SDS011;12743;52.262;6.172;2022-07-24T07:52:28;11.57;;;4.95;;
24585;SDS011;12743;52.262;6.172;2022-07-24T07:54:54;7.13;;;4.53;;
24585;SDS011;12743;52.262;6.172;2022-07-24T07:57:19;6.93;;;3.60;;
24585;SDS011;12743;52.262;6.172;2022-07-24T07:59:44;7.70;;;3.07;;
24585;SDS011;12743;52.262;6.172;2022-07-24T08:02:10;5.10;;;2.47;;
24585;SDS011;12743;52.262;6.172;2022-07-24T08:04:35;4.77;;;2.57;;
24585;SDS011;12743;52.262;6.172;2022-07-24T08:07:01;4.90;;;2.00;;
24585;SDS011;12743;52.262;6.172;2022-07-24T08:09:26;4.40;;;2.00;;
24585;SDS011;12743;52.262;6.172;2022-07-24T08:11:52;4.50;;;1.90;;
24585;SDS011;12743;52.262;6.172;2022-07-24T08:14:17;4.80;;;1.83;;
24585;SDS011;12743;52.262;6.172;2022-07-24T08:16:42;4.87;;;2.10;;
24585;SDS011;12743;52.262;6.172;2022-07-24T08:19:08;3.20;;;1.57;;
24585;SDS011;12743;52.262;6.172;2022-07-24T08:21:33;4.97;;;1.93;;
24585;SDS011;12743;52.262;6.172;2022-07-24T08:23:59;7.13;;;2.17;;
24585;SDS011;12743;52.262;6.172;2022-07-24T08:26:24;3.47;;;1.80;;
24585;SDS011;12743;52.262;6.172;2022-07-24T08:28:49;4.20;;;1.47;;
24585;SDS011;12743;52.262;6.172;2022-07-24T08:31:15;5.17;;;1.67;;
24585;SDS011;12743;52.262;6.172;2022-07-24T08:33:40;4.20;;;1.80;;
24585;SDS011;12743;52.262;6.172;2022-07-24T08:36:05;4.50;;;1.80;;
24585;SDS011;12743;52.262;6.172;2022-07-24T08:38:31;5.68;;;1.80;;
24585;SDS011;12743;52.262;6.172;2022-07-24T08:40:56;4.77;;;2.23;;
24585;SDS011;12743;52.262;6.172;2022-07-24T08:43:22;5.87;;;1.90;;
24585;SDS011;12743;52.262;6.172;2022-07-24T08:45:47;2.97;;;1.53;;
24585;SDS011;12743;52.262;6.172;2022-07-24T08:48:15;3.75;;;1.70;;
24585;SDS011;12743;52.262;6.172;2022-07-24T08:50:42;3.50;;;1.85;;
24585;SDS011;12743;52.262;6.172;2022-07-24T08:53:08;3.67;;;2.03;;
24585;SDS011;12743;52.262;6.172;2022-07-24T08:55:34;5.25;;;1.70;;
24585;SDS011;12743;52.262;6.172;2022-07-24T08:57:59;5.47;;;1.90;;
24585;SDS011;12743;52.262;6.172;2022-07-24T09:00:26;5.97;;;1.90;;
24585;SDS011;12743;52.262;6.172;2022-07-24T09:02:52;4.93;;;2.22;;
24585;SDS011;12743;52.262;6.172;2022-07-24T09:05:18;4.13;;;1.87;;
24585;SDS011;12743;52.262;6.172;2022-07-24T09:07:43;4.10;;;1.80;;
24585;SDS011;12743;52.262;6.172;2022-07-24T09:10:13;3.30;;;1.70;;
24585;SDS011;12743;52.262;6.172;2022-07-24T09:12:45;3.78;;;1.50;;
24585;SDS011;12743;52.262;6.172;2022-07-24T09:15:16;4.93;;;1.80;;
24585;SDS011;12743;52.262;6.172;2022-07-24T09:20:14;3.08;;;1.80;;
24585;SDS011;12743;52.262;6.172;2022-07-24T09:22:41;6.03;;;1.73;;
24585;SDS011;12743;52.262;6.172;2022-07-24T09:25:20;4.10;;;1.52;;
24585;SDS011;12743;52.262;6.172;2022-07-24T09:30:21;2.70;;;1.20;;
24585;SDS011;12743;52.262;6.172;2022-07-24T09:32:58;7.25;;;1.88;;
24585;SDS011;12743;52.262;6.172;2022-07-24T09:35:32;3.17;;;1.40;;
24585;SDS011;12743;52.262;6.172;2022-07-24T09:38:01;3.20;;;1.40;;
24585;SDS011;12743;52.262;6.172;2022-07-24T09:40:32;2.92;;;1.40;;
24585;SDS011;12743;52.262;6.172;2022-07-24T09:48:26;2.90;;;1.40;;
24585;SDS011;12743;52.262;6.172;2022-07-24T09:51:00;3.17;;;1.75;;
24585;SDS011;12743;52.262;6.172;2022-07-24T09:53:31;2.97;;;1.60;;
24585;SDS011;12743;52.262;6.172;2022-07-24T09:55:58;4.60;;;1.48;;
24585;SDS011;12743;52.262;6.172;2022-07-24T10:01:11;3.70;;;1.63;;
24585;SDS011;12743;52.262;6.172;2022-07-24T10:03:38;3.60;;;1.70;;
24585;SDS011;12743;52.262;6.172;2022-07-24T10:06:05;3.50;;;1.90;;
24585;SDS011;12743;52.262;6.172;2022-07-24T10:08:32;3.53;;;1.88;;
24585;SDS011;12743;52.262;6.172;2022-07-24T10:10:59;4.03;;;2.05;;
24585;SDS011;12743;52.262;6.172;2022-07-24T10:13:25;4.70;;;1.90;;
24585;SDS011;12743;52.262;6.172;2022-07-24T10:18:52;4.28;;;1.90;;
24585;SDS011;12743;52.262;6.172;2022-07-24T10:21:31;4.43;;;2.05;;
24585;SDS011;12743;52.262;6.172;2022-07-24T10:29:12;6.15;;;2.15;;
24585;SDS011;12743;52.262;6.172;2022-07-24T10:31:43;4.45;;;2.00;;
24585;SDS011;12743;52.262;6.172;2022-07-24T10:34:15;4.82;;;2.38;;
24585;SDS011;12743;52.262;6.172;2022-07-24T10:36:55;6.00;;;1.98;;
24585;SDS011;12743;52.262;6.172;2022-07-24T10:39:32;4.30;;;2.30;;
24585;SDS011;12743;52.262;6.172;2022-07-24T10:42:14;4.22;;;2.03;;
24585;SDS011;12743;52.262;6.172;2022-07-24T10:44:40;4.35;;;2.25;;
24585;SDS011;12743;52.262;6.172;2022-07-24T10:47:06;4.67;;;2.47;;
24585;SDS011;12743;52.262;6.172;2022-07-24T10:49:34;8.85;;;2.30;;
24585;SDS011;12743;52.262;6.172;2022-07-24T10:52:10;4.70;;;2.30;;
24585;SDS011;12743;52.262;6.172;2022-07-24T10:54:36;4.50;;;2.20;;
24585;SDS011;12743;52.262;6.172;2022-07-24T10:57:03;5.45;;;2.20;;
24585;SDS011;12743;52.262;6.172;2022-07-24T10:59:32;4.60;;;2.20;;
24585;SDS011;12743;52.262;6.172;2022-07-24T11:08:12;6.80;;;2.80;;
24585;SDS011;12743;52.262;6.172;2022-07-24T11:10:44;6.03;;;2.80;;
24585;SDS011;12743;52.262;6.172;2022-07-24T11:14:10;5.18;;;2.67;;
24585;SDS011;12743;52.262;6.172;2022-07-24T11:18:35;4.10;;;2.45;;
24585;SDS011;12743;52.262;6.172;2022-07-24T11:21:01;4.95;;;3.00;;
24585;SDS011;12743;52.262;6.172;2022-07-24T11:23:27;5.53;;;2.38;;
24585;SDS011;12743;52.262;6.172;2022-07-24T11:26:35;5.00;;;2.70;;
24585;SDS011;12743;52.262;6.172;2022-07-24T11:31:44;6.32;;;2.33;;
24585;SDS011;12743;52.262;6.172;2022-07-24T11:34:12;4.40;;;2.67;;
24585;SDS011;12743;52.262;6.172;2022-07-24T11:36:42;5.82;;;2.83;;
24585;SDS011;12743;52.262;6.172;2022-07-24T11:39:10;4.55;;;2.88;;
24585;SDS011;12743;52.262;6.172;2022-07-24T11:41:45;5.80;;;3.20;;
24585;SDS011;12743;52.262;6.172;2022-07-24T11:44:12;5.53;;;2.83;;
24585;SDS011;12743;52.262;6.172;2022-07-24T11:46:47;5.88;;;2.78;;
24585;SDS011;12743;52.262;6.172;2022-07-24T11:49:13;6.97;;;3.00;;
24585;SDS011;12743;52.262;6.172;2022-07-24T11:51:45;4.18;;;2.83;;
24585;SDS011;12743;52.262;6.172;2022-07-24T11:54:13;4.97;;;2.75;;
24585;SDS011;12743;52.262;6.172;2022-07-24T11:56:44;4.90;;;2.77;;
24585;SDS011;12743;52.262;6.172;2022-07-24T11:59:28;5.57;;;3.03;;
24585;SDS011;12743;52.262;6.172;2022-07-24T12:01:56;6.17;;;3.03;;
24585;SDS011;12743;52.262;6.172;2022-07-24T12:04:28;6.35;;;2.70;;
24585;SDS011;12743;52.262;6.172;2022-07-24T12:06:53;4.63;;;2.40;;
24585;SDS011;12743;52.262;6.172;2022-07-24T12:09:19;6.03;;;3.00;;
24585;SDS011;12743;52.262;6.172;2022-07-24T12:11:44;4.40;;;2.50;;
24585;SDS011;12743;52.262;6.172;2022-07-24T12:14:13;5.17;;;3.30;;
24585;SDS011;12743;52.262;6.172;2022-07-24T12:16:41;6.10;;;2.85;;
24585;SDS011;12743;52.262;6.172;2022-07-24T12:19:16;4.67;;;2.70;;
24585;SDS011;12743;52.262;6.172;2022-07-24T12:21:44;5.47;;;2.58;;
24585;SDS011;12743;52.262;6.172;2022-07-24T12:24:17;5.40;;;2.63;;
24585;SDS011;12743;52.262;6.172;2022-07-24T12:26:50;5.05;;;2.58;;
24585;SDS011;12743;52.262;6.172;2022-07-24T12:29:17;4.40;;;2.50;;
24585;SDS011;12743;52.262;6.172;2022-07-24T12:31:43;5.70;;;2.65;;
24585;SDS011;12743;52.262;6.172;2022-07-24T12:34:08;5.63;;;3.00;;
24585;SDS011;12743;52.262;6.172;2022-07-24T12:36:34;4.68;;;2.88;;
24585;SDS011;12743;52.262;6.172;2022-07-24T12:39:00;5.83;;;2.57;;
24585;SDS011;12743;52.262;6.172;2022-07-24T12:41:27;5.20;;;3.00;;
24585;SDS011;12743;52.262;6.172;2022-07-24T12:44:03;3.40;;;2.30;;
24585;SDS011;12743;52.262;6.172;2022-07-24T12:46:31;4.70;;;2.67;;
24585;SDS011;12743;52.262;6.172;2022-07-24T12:54:20;4.47;;;2.50;;
24585;SDS011;12743;52.262;6.172;2022-07-24T12:56:47;5.07;;;2.60;;
24585;SDS011;12743;52.262;6.172;2022-07-24T12:59:21;3.72;;;2.35;;
24585;SDS011;12743;52.262;6.172;2022-07-24T13:02:12;4.18;;;2.63;;
24585;SDS011;12743;52.262;6.172;2022-07-24T13:04:42;4.43;;;2.58;;
24585;SDS011;12743;52.262;6.172;2022-07-24T13:07:09;3.88;;;2.50;;
24585;SDS011;12743;52.262;6.172;2022-07-24T13:09:35;3.80;;;2.40;;
24585;SDS011;12743;52.262;6.172;2022-07-24T13:12:01;3.45;;;2.20;;
24585;SDS011;12743;52.262;6.172;2022-07-24T13:14:27;6.35;;;2.58;;
24585;SDS011;12743;52.262;6.172;2022-07-24T13:16:54;3.70;;;2.42;;
24585;SDS011;12743;52.262;6.172;2022-07-24T13:19:25;6.03;;;2.70;;
24585;SDS011;12743;52.262;6.172;2022-07-24T13:21:51;8.13;;;2.77;;
24585;SDS011;12743;52.262;6.172;2022-07-24T13:24:16;4.57;;;2.67;;
24585;SDS011;12743;52.262;6.172;2022-07-24T13:26:42;3.47;;;2.37;;
24585;SDS011;12743;52.262;6.172;2022-07-24T13:29:09;3.78;;;1.92;;
24585;SDS011;12743;52.262;6.172;2022-07-24T13:31:36;3.55;;;2.20;;
24585;SDS011;12743;52.262;6.172;2022-07-24T13:34:02;3.63;;;2.20;;
24585;SDS011;12743;52.262;6.172;2022-07-24T13:36:27;4.07;;;2.58;;
24585;SDS011;12743;52.262;6.172;2022-07-24T13:38:53;3.67;;;2.40;;
24585;SDS011;12743;52.262;6.172;2022-07-24T13:41:18;4.30;;;2.40;;
24585;SDS011;12743;52.262;6.172;2022-07-24T13:43:46;4.82;;;2.50;;
24585;SDS011;12743;52.262;6.172;2022-07-24T13:46:13;3.08;;;2.20;;
24585;SDS011;12743;52.262;6.172;2022-07-24T13:48:39;4.35;;;2.58;;
24585;SDS011;12743;52.262;6.172;2022-07-24T13:51:04;4.43;;;2.20;;
24585;SDS011;12743;52.262;6.172;2022-07-24T13:53:30;4.60;;;2.20;;
24585;SDS011;12743;52.262;6.172;2022-07-24T13:55:55;3.87;;;2.13;;
24585;SDS011;12743;52.262;6.172;2022-07-24T13:58:27;3.85;;;2.13;;
24585;SDS011;12743;52.262;6.172;2022-07-24T14:00:52;3.27;;;2.00;;
24585;SDS011;12743;52.262;6.172;2022-07-24T14:03:17;4.35;;;2.28;;
24585;SDS011;12743;52.262;6.172;2022-07-24T14:05:43;4.57;;;2.10;;
24585;SDS011;12743;52.262;6.172;2022-07-24T14:08:08;3.80;;;2.20;;
24585;SDS011;12743;52.262;6.172;2022-07-24T14:10:34;3.37;;;2.30;;
24585;SDS011;12743;52.262;6.172;2022-07-24T14:12:59;3.93;;;2.23;;
24585;SDS011;12743;52.262;6.172;2022-07-24T14:15:24;4.83;;;2.23;;
24585;SDS011;12743;52.262;6.172;2022-07-24T14:17:50;3.67;;;2.20;;
24585;SDS011;12743;52.262;6.172;2022-07-24T14:20:15;3.90;;;2.07;;
24585;SDS011;12743;52.262;6.172;2022-07-24T14:22:41;3.20;;;2.00;;
24585;SDS011;12743;52.262;6.172;2022-07-24T14:25:07;3.08;;;1.90;;
24585;SDS011;12743;52.262;6.172;2022-07-24T14:27:34;3.80;;;1.90;;
24585;SDS011;12743;52.262;6.172;2022-07-24T14:30:00;4.10;;;2.22;;
24585;SDS011;12743;52.262;6.172;2022-07-24T14:32:26;5.30;;;1.83;;
24585;SDS011;12743;52.262;6.172;2022-07-24T14:34:51;2.97;;;1.70;;
24585;SDS011;12743;52.262;6.172;2022-07-24T14:37:17;3.13;;;1.90;;
24585;SDS011;12743;52.262;6.172;2022-07-24T14:39:42;3.43;;;2.00;;
24585;SDS011;12743;52.262;6.172;2022-07-24T14:42:08;3.10;;;2.10;;
24585;SDS011;12743;52.262;6.172;2022-07-24T14:44:34;3.63;;;2.17;;
24585;SDS011;12743;52.262;6.172;2022-07-24T14:46:59;3.27;;;2.17;;
24585;SDS011;12743;52.262;6.172;2022-07-24T14:49:26;3.70;;;1.80;;
24585;SDS011;12743;52.262;6.172;2022-07-24T14:51:52;3.33;;;1.92;;
24585;SDS011;12743;52.262;6.172;2022-07-24T14:54:18;3.20;;;2.00;;
24585;SDS011;12743;52.262;6.172;2022-07-24T14:56:43;3.97;;;2.60;;
24585;SDS011;12743;52.262;6.172;2022-07-24T14:59:08;3.38;;;2.03;;
24585;SDS011;12743;52.262;6.172;2022-07-24T15:01:34;4.13;;;2.03;;
24585;SDS011;12743;52.262;6.172;2022-07-24T15:04:00;3.28;;;1.90;;
24585;SDS011;12743;52.262;6.172;2022-07-24T15:06:26;4.80;;;1.90;;
24585;SDS011;12743;52.262;6.172;2022-07-24T15:08:53;4.07;;;2.10;;
24585;SDS011;12743;52.262;6.172;2022-07-24T15:11:18;5.03;;;2.20;;
24585;SDS011;12743;52.262;6.172;2022-07-24T15:13:46;3.47;;;2.07;;
24585;SDS011;12743;52.262;6.172;2022-07-24T15:16:12;2.80;;;1.90;;
24585;SDS011;12743;52.262;6.172;2022-07-24T15:18:38;4.17;;;2.23;;